createdAt,value
2017-12-20T00:00:43.479Z,16.97
2017-12-20T00:03:11.716Z,18.43
2017-12-20T00:05:39.158Z,17.15
2017-12-20T00:08:06.625Z,18.02
2017-12-20T00:10:34.078Z,17.97
2017-12-20T00:13:01.549Z,16.25
2017-12-20T00:15:29.006Z,16.87
2017-12-20T00:17:56.510Z,16.83
2017-12-20T00:20:24.721Z,19.40
2017-12-20T00:22:52.177Z,16.77
2017-12-20T00:25:19.632Z,17.43
2017-12-20T00:27:47.086Z,19.23
2017-12-20T00:30:14.544Z,18.30
2017-12-20T00:32:42.006Z,17.90
2017-12-20T00:35:09.464Z,19.70
2017-12-20T00:37:37.688Z,17.80
2017-12-20T00:40:05.927Z,18.35
2017-12-20T00:42:33.388Z,20.02
2017-12-20T00:45:02.829Z,16.60
2017-12-20T00:47:30.280Z,17.80
2017-12-20T00:49:58.530Z,17.10
2017-12-20T00:52:25.978Z,17.47
2017-12-20T00:54:53.429Z,17.73
2017-12-20T00:57:20.894Z,17.58
2017-12-20T00:59:48.350Z,17.27
2017-12-20T01:02:15.814Z,16.80
2017-12-20T01:04:43.256Z,14.65
2017-12-20T01:07:10.721Z,16.17
2017-12-20T01:09:38.212Z,15.32
2017-12-20T01:12:06.711Z,16.83
2017-12-20T01:14:34.172Z,16.63
2017-12-20T01:17:01.639Z,16.30
2017-12-20T01:19:29.085Z,15.10
2017-12-20T01:21:56.562Z,17.67
2017-12-20T01:24:24.013Z,16.70
2017-12-20T01:26:51.474Z,17.15
2017-12-20T01:29:18.930Z,17.77
2017-12-20T01:31:46.431Z,15.85
2017-12-20T01:34:13.871Z,16.92
2017-12-20T01:36:41.338Z,15.73
2017-12-20T01:39:08.803Z,13.02
2017-12-20T01:41:36.251Z,14.23
2017-12-20T01:44:05.414Z,15.30
2017-12-20T01:46:32.811Z,16.97
2017-12-20T01:49:00.294Z,16.27
2017-12-20T01:51:27.777Z,16.02
2017-12-20T01:53:55.312Z,16.67
2017-12-20T01:56:23.597Z,16.30
2017-12-20T01:58:53.246Z,14.80
2017-12-20T02:01:21.997Z,14.77
2017-12-20T02:03:49.518Z,14.80
2017-12-20T02:06:17.011Z,16.60
2017-12-20T02:08:44.520Z,13.47
2017-12-20T02:11:12.022Z,15.17
2017-12-20T02:13:39.526Z,14.67
2017-12-20T02:16:07.006Z,11.70
2017-12-20T02:18:35.264Z,15.33
2017-12-20T02:21:02.745Z,14.38
2017-12-20T02:23:30.994Z,12.77
2017-12-20T02:25:58.470Z,12.43
2017-12-20T02:28:25.957Z,14.38
2017-12-20T02:30:53.435Z,13.23
2017-12-20T02:33:36.125Z,12.20
2017-12-20T02:36:04.388Z,14.53
2017-12-20T02:38:39.087Z,13.68
2017-12-20T02:41:06.579Z,14.65
2017-12-20T02:43:34.824Z,10.90
2017-12-20T02:46:02.343Z,12.95
2017-12-20T02:48:29.838Z,11.67
2017-12-20T02:50:57.344Z,14.50
2017-12-20T02:53:24.867Z,12.63
2017-12-20T02:55:52.385Z,9.23
2017-12-20T02:58:19.953Z,13.20
2017-12-20T03:00:48.160Z,12.10
2017-12-20T03:03:15.668Z,12.70
2017-12-20T03:05:43.195Z,13.10
2017-12-20T03:08:11.480Z,10.93
2017-12-20T03:10:38.990Z,11.80
2017-12-20T03:13:06.516Z,13.25
2017-12-20T03:15:34.011Z,12.57
2017-12-20T03:18:01.493Z,14.13
2017-12-20T03:20:29.795Z,12.03
2017-12-20T03:22:57.315Z,12.43
2017-12-20T03:25:25.578Z,11.60
2017-12-20T03:27:53.071Z,12.40
2017-12-20T03:30:21.343Z,10.90
2017-12-20T03:32:49.623Z,13.03
2017-12-20T03:35:17.150Z,12.57
2017-12-20T03:37:44.658Z,11.30
2017-12-20T03:40:12.166Z,12.20
2017-12-20T03:42:39.655Z,11.70
2017-12-20T03:45:07.145Z,11.07
2017-12-20T03:47:34.634Z,13.50
2017-12-20T03:50:02.144Z,13.02
2017-12-20T03:52:29.639Z,11.82
2017-12-20T03:54:57.211Z,13.38
2017-12-20T03:57:24.731Z,15.10
2017-12-20T03:59:52.235Z,13.18
2017-12-20T04:02:19.750Z,13.43
2017-12-20T04:04:47.244Z,13.80
2017-12-20T04:07:14.762Z,12.63
2017-12-20T04:09:42.271Z,12.00
2017-12-20T04:12:10.577Z,14.20
2017-12-20T04:14:38.083Z,11.60
2017-12-20T04:17:05.585Z,12.40
2017-12-20T04:19:33.083Z,13.15
2017-12-20T04:22:00.595Z,12.63
2017-12-20T04:24:28.867Z,10.37
2017-12-20T04:26:57.156Z,12.97
2017-12-20T04:29:24.654Z,13.10
2017-12-20T04:31:52.156Z,13.50
2017-12-20T04:34:20.423Z,12.57
2017-12-20T04:36:48.690Z,14.00
2017-12-20T04:39:16.203Z,14.40
2017-12-20T04:41:43.710Z,14.55
2017-12-20T04:44:11.224Z,12.97
2017-12-20T04:46:38.708Z,14.13
2017-12-20T04:49:06.202Z,13.40
2017-12-20T04:51:33.703Z,14.27
2017-12-20T04:54:01.218Z,13.75
2017-12-20T04:56:28.731Z,12.75
2017-12-20T04:58:56.240Z,15.45
2017-12-20T05:01:23.737Z,14.10
2017-12-20T05:03:51.231Z,13.50
2017-12-20T05:06:18.723Z,14.30
2017-12-20T05:08:46.234Z,15.53
2017-12-20T05:11:13.740Z,12.20
2017-12-20T05:13:41.253Z,11.47
2017-12-20T05:16:08.758Z,14.77
2017-12-20T05:18:36.275Z,13.67
2017-12-20T05:21:04.550Z,12.80
2017-12-20T05:23:32.076Z,13.30
2017-12-20T05:25:59.582Z,14.90
2017-12-20T05:28:27.847Z,12.25
2017-12-20T05:30:56.126Z,14.13
2017-12-20T05:33:24.406Z,14.13
2017-12-20T05:35:52.679Z,11.65
2017-12-20T05:38:20.943Z,11.10
2017-12-20T05:40:48.443Z,10.95
2017-12-20T05:43:15.962Z,12.10
2017-12-20T05:45:43.465Z,13.02
2017-12-20T05:48:10.983Z,12.45
2017-12-20T05:50:39.260Z,12.30
2017-12-20T05:53:06.764Z,12.90
2017-12-20T05:55:34.270Z,12.43
2017-12-20T05:58:01.822Z,11.60
2017-12-20T06:00:29.302Z,11.40
2017-12-20T06:02:57.569Z,7.83
2017-12-20T06:05:25.827Z,10.40
2017-12-20T06:07:53.323Z,11.80
2017-12-20T06:10:20.832Z,12.25
2017-12-20T06:12:48.328Z,9.73
2017-12-20T06:15:16.631Z,8.10
2017-12-20T06:17:44.173Z,10.67
2017-12-20T06:20:11.723Z,12.27
2017-12-20T06:22:40.012Z,13.50
2017-12-20T06:25:07.527Z,14.40
2017-12-20T06:27:35.027Z,9.37
2017-12-20T06:30:02.586Z,10.90
2017-12-20T06:32:30.082Z,7.60
2017-12-20T06:34:57.574Z,10.43
2017-12-20T06:37:25.851Z,9.00
2017-12-20T06:39:53.332Z,8.57
2017-12-20T06:42:20.833Z,9.65
2017-12-20T06:44:48.347Z,8.10
2017-12-20T06:47:16.601Z,7.20
2017-12-20T06:49:44.847Z,7.80
2017-12-20T06:52:12.364Z,7.25
2017-12-20T06:54:39.872Z,6.90
2017-12-20T06:57:07.370Z,7.50
2017-12-20T07:02:09.634Z,6.20
2017-12-20T07:04:37.919Z,5.95
2017-12-20T07:07:05.453Z,6.80
2017-12-20T07:09:32.952Z,6.90
2017-12-20T07:12:00.463Z,4.90
2017-12-20T07:14:27.987Z,6.90
2017-12-20T07:16:55.487Z,6.80
2017-12-20T07:19:23.007Z,6.60
2017-12-20T07:21:50.507Z,7.20
2017-12-20T07:24:18.014Z,6.20
2017-12-20T07:26:45.526Z,6.43
2017-12-20T07:29:13.845Z,5.80
2017-12-20T07:31:41.325Z,5.03
2017-12-20T07:34:08.818Z,5.90
2017-12-20T07:36:37.106Z,6.80
2017-12-20T07:39:05.363Z,5.45
2017-12-20T07:41:32.928Z,6.17
2017-12-20T07:44:00.370Z,7.30
2017-12-20T07:46:27.884Z,4.93
2017-12-20T07:48:55.388Z,6.20
2017-12-20T07:51:22.919Z,6.00
2017-12-20T07:53:50.439Z,6.65
2017-12-20T07:56:17.930Z,6.40
2017-12-20T07:58:45.424Z,6.70
2017-12-20T08:01:12.935Z,5.47
2017-12-20T08:03:40.431Z,6.57
2017-12-20T08:06:07.945Z,6.20
2017-12-20T08:08:35.435Z,6.40
2017-12-20T08:11:02.936Z,7.40
2017-12-20T08:13:30.444Z,6.80
2017-12-20T08:15:57.947Z,7.53
2017-12-20T08:18:26.228Z,6.65
2017-12-20T08:20:54.519Z,6.55
2017-12-20T08:23:22.011Z,6.97
2017-12-20T08:25:49.519Z,6.80
2017-12-20T08:28:17.770Z,5.10
2017-12-20T08:30:45.272Z,6.60
2017-12-20T08:33:12.769Z,7.13
2017-12-20T08:35:40.291Z,6.20
2017-12-20T08:38:07.784Z,6.33
2017-12-20T08:40:35.280Z,5.73
2017-12-20T08:43:03.513Z,7.40
2017-12-20T08:45:31.003Z,4.83
2017-12-20T08:47:58.508Z,6.10
2017-12-20T08:50:26.003Z,6.33
2017-12-20T08:52:53.499Z,5.67
2017-12-20T08:55:20.987Z,6.50
2017-12-20T08:57:48.463Z,6.57
2017-12-20T09:00:15.954Z,6.90
2017-12-20T09:02:44.212Z,6.60
2017-12-20T09:05:11.704Z,5.70
2017-12-20T09:07:39.208Z,5.87
2017-12-20T09:10:06.704Z,5.63
2017-12-20T09:12:34.989Z,4.40
2017-12-20T09:15:03.243Z,6.77
2017-12-20T09:17:30.734Z,4.00
2017-12-20T09:19:58.225Z,5.93
2017-12-20T09:22:25.749Z,4.45
2017-12-20T09:24:53.258Z,6.10
2017-12-20T09:27:20.763Z,6.00
2017-12-20T09:29:49.028Z,5.27
2017-12-20T09:32:17.295Z,5.47
2017-12-20T09:34:44.785Z,4.90
2017-12-20T09:37:12.293Z,5.10
2017-12-20T09:39:39.796Z,4.63
2017-12-20T09:42:07.300Z,4.17
2017-12-20T09:44:34.799Z,3.73
2017-12-20T09:47:03.071Z,4.17
2017-12-20T09:49:31.340Z,3.60
2017-12-20T09:51:59.609Z,4.20
2017-12-20T09:54:27.875Z,4.23
2017-12-20T09:56:55.371Z,3.87
2017-12-20T09:59:22.875Z,3.85
2017-12-20T10:01:50.382Z,4.53
2017-12-20T10:04:17.913Z,5.67
2017-12-20T10:06:45.400Z,5.23
2017-12-20T10:09:12.929Z,5.17
2017-12-20T10:11:41.223Z,4.67
2017-12-20T10:14:09.483Z,5.13
2017-12-20T10:16:36.989Z,5.60
2017-12-20T10:19:04.507Z,5.37
2017-12-20T10:21:32.767Z,4.70
2017-12-20T10:24:00.272Z,3.53
2017-12-20T10:26:27.775Z,4.33
2017-12-20T10:28:55.254Z,4.17
2017-12-20T10:31:23.536Z,4.43
2017-12-20T10:33:51.737Z,4.27
2017-12-20T10:36:19.188Z,5.60
2017-12-20T10:38:46.641Z,4.63
2017-12-20T10:41:14.087Z,5.17
2017-12-20T10:43:43.448Z,5.23
2017-12-20T10:49:18.051Z,5.57
2017-12-20T10:54:42.247Z,5.70
2017-12-20T10:57:12.875Z,5.70
2017-12-20T11:05:15.215Z,5.17
2017-12-20T11:07:42.720Z,4.83
2017-12-20T11:10:10.961Z,4.40
2017-12-20T11:12:38.413Z,5.13
2017-12-20T11:15:06.589Z,5.20
2017-12-20T11:17:43.968Z,4.60
2017-12-20T11:20:34.739Z,4.53
2017-12-20T11:23:03.053Z,3.10
2017-12-20T11:25:32.391Z,5.03
2017-12-20T11:28:00.819Z,3.50
2017-12-20T11:30:28.314Z,2.80
2017-12-20T11:32:56.190Z,3.73
2017-12-20T11:35:23.743Z,3.20
2017-12-20T11:37:51.243Z,3.43
2017-12-20T11:40:18.755Z,3.63
2017-12-20T11:42:46.262Z,3.17
2017-12-20T11:45:13.775Z,3.40
2017-12-20T11:47:41.218Z,3.50
2017-12-20T11:50:08.661Z,3.57
2017-12-20T11:52:36.112Z,4.37
2017-12-20T11:55:03.563Z,4.03
2017-12-20T11:57:31.016Z,4.23
2017-12-20T11:59:58.449Z,3.70
2017-12-20T12:02:25.901Z,3.80
2017-12-20T12:04:53.343Z,4.80
2017-12-20T12:07:21.557Z,3.83
2017-12-20T12:09:49.002Z,3.63
2017-12-20T12:12:16.436Z,3.87
2017-12-20T12:14:43.897Z,4.47
2017-12-20T12:17:11.336Z,4.50
2017-12-20T12:19:39.552Z,5.97
2017-12-20T12:22:07.066Z,5.63
2017-12-20T12:24:34.466Z,6.50
2017-12-20T12:27:01.917Z,5.70
2017-12-20T12:29:29.355Z,6.57
2017-12-20T12:31:56.795Z,6.90
2017-12-20T12:34:25.016Z,7.00
2017-12-20T12:36:52.460Z,6.00
2017-12-20T12:39:19.909Z,6.30
2017-12-20T12:41:47.358Z,7.53
2017-12-20T12:44:14.816Z,6.40
2017-12-20T12:46:42.249Z,9.47
2017-12-20T12:49:10.472Z,9.07
2017-12-20T12:51:37.912Z,8.10
2017-12-20T12:54:05.361Z,7.73
2017-12-20T12:56:32.797Z,7.97
2017-12-20T12:59:01.053Z,8.30
2017-12-20T13:01:28.488Z,8.80
2017-12-20T13:03:55.988Z,5.17
2017-12-20T13:06:24.200Z,6.10
2017-12-20T13:08:51.646Z,6.93
2017-12-20T13:11:19.081Z,6.80
2017-12-20T13:13:46.528Z,5.57
2017-12-20T13:16:14.751Z,6.43
2017-12-20T13:18:42.205Z,5.83
2017-12-20T13:21:09.649Z,5.70
2017-12-20T13:23:37.082Z,6.00
2017-12-20T13:26:04.532Z,6.20
2017-12-20T13:28:32.737Z,7.07
2017-12-20T13:31:00.198Z,6.83
2017-12-20T13:33:27.638Z,6.23
2017-12-20T13:35:55.085Z,7.37
2017-12-20T13:38:22.529Z,7.00
2017-12-20T13:40:50.752Z,7.80
2017-12-20T13:43:18.205Z,8.10
2017-12-20T13:45:45.687Z,7.30
2017-12-20T13:48:13.136Z,7.37
2017-12-20T13:50:40.574Z,6.60
2017-12-20T13:53:08.022Z,5.10
2017-12-20T13:55:35.471Z,6.30
2017-12-20T13:58:02.909Z,6.67
2017-12-20T14:00:30.354Z,5.77
2017-12-20T14:02:58.573Z,7.13
2017-12-20T14:05:26.021Z,6.93
2017-12-20T14:07:53.464Z,6.00
2017-12-20T14:10:20.909Z,8.13
2017-12-20T14:12:48.364Z,8.00
2017-12-20T14:15:16.571Z,7.67
2017-12-20T14:17:44.017Z,10.17
2017-12-20T14:20:11.460Z,7.57
2017-12-20T14:22:38.918Z,7.43
2017-12-20T14:25:06.357Z,9.43
2017-12-20T14:27:34.582Z,7.60
2017-12-20T14:30:02.027Z,7.63
2017-12-20T14:32:29.469Z,7.47
2017-12-20T14:34:56.912Z,7.67
2017-12-20T14:37:25.108Z,8.80
2017-12-20T14:39:52.562Z,8.03
2017-12-20T14:42:20.013Z,8.13
2017-12-20T14:44:47.465Z,7.80
2017-12-20T14:47:14.904Z,7.60
2017-12-20T14:49:42.352Z,7.00
2017-12-20T14:52:10.567Z,7.30
2017-12-20T14:54:38.025Z,8.70
2017-12-20T14:57:05.460Z,6.73
2017-12-20T14:59:32.912Z,9.00
2017-12-20T15:02:00.354Z,7.83
2017-12-20T15:04:28.569Z,6.20
2017-12-20T15:06:56.019Z,9.03
2017-12-20T15:09:23.478Z,8.93
2017-12-20T15:11:50.931Z,8.07
2017-12-20T15:14:18.392Z,7.17
2017-12-20T15:16:45.845Z,9.60
2017-12-20T15:19:13.293Z,8.70
2017-12-20T15:21:40.744Z,9.23
2017-12-20T15:24:08.190Z,8.67
2017-12-20T15:26:35.632Z,9.30
2017-12-20T15:29:03.090Z,9.90
2017-12-20T15:31:30.538Z,9.13
2017-12-20T15:33:57.981Z,9.70
2017-12-20T15:36:25.429Z,9.77
2017-12-20T15:38:52.885Z,9.23
2017-12-20T15:41:20.349Z,10.00
2017-12-20T15:43:47.798Z,8.57
2017-12-20T15:46:15.241Z,9.87
2017-12-20T15:48:42.695Z,8.43
2017-12-20T15:51:10.139Z,9.00
2017-12-20T15:53:37.602Z,10.30
2017-12-20T15:56:05.050Z,8.60
2017-12-20T15:58:32.508Z,7.90
2017-12-20T16:00:59.944Z,7.50
2017-12-20T16:03:27.388Z,7.87
2017-12-20T16:05:55.605Z,10.37
2017-12-20T16:08:23.117Z,10.60
2017-12-20T16:10:50.529Z,9.67
2017-12-20T16:13:17.982Z,10.17
2017-12-20T16:15:45.432Z,10.40
2017-12-20T16:18:13.312Z,9.90
2017-12-20T16:20:40.756Z,12.23
2017-12-20T16:23:08.204Z,10.90
2017-12-20T16:25:35.663Z,9.87
2017-12-20T16:28:03.109Z,11.27
2017-12-20T16:30:30.569Z,11.67
2017-12-20T16:32:58.012Z,11.07
2017-12-20T16:35:25.478Z,11.20
2017-12-20T16:37:52.922Z,9.50
2017-12-20T16:40:20.614Z,12.37
2017-12-20T16:42:48.068Z,11.43
2017-12-20T16:45:15.522Z,12.00
2017-12-20T16:47:42.966Z,11.80
2017-12-20T16:50:10.418Z,10.70
2017-12-20T16:52:37.886Z,11.17
2017-12-20T16:55:05.328Z,13.13
2017-12-20T16:57:32.771Z,14.53
2017-12-20T17:00:00.225Z,10.97
2017-12-20T17:02:28.439Z,13.27
2017-12-20T17:04:55.892Z,12.77
2017-12-20T17:07:23.359Z,12.50
2017-12-20T17:09:50.851Z,10.80
2017-12-20T17:12:18.335Z,12.60
2017-12-20T17:14:45.821Z,13.03
2017-12-20T17:17:13.256Z,14.73
2017-12-20T17:19:40.750Z,12.90
2017-12-20T17:22:08.177Z,14.33
2017-12-20T17:24:35.629Z,13.50
2017-12-20T17:27:03.072Z,14.67
2017-12-20T17:29:30.521Z,15.23
2017-12-20T17:31:58.743Z,14.63
2017-12-20T17:34:26.205Z,14.77
2017-12-20T17:36:53.657Z,16.63
2017-12-20T17:39:21.870Z,16.57
2017-12-20T17:41:49.328Z,15.40
2017-12-20T17:44:17.554Z,16.00
2017-12-20T17:46:45.006Z,14.90
2017-12-20T17:49:12.506Z,13.47
2017-12-20T17:51:39.949Z,14.57
2017-12-20T17:54:08.195Z,18.73
2017-12-20T17:56:35.651Z,16.63
2017-12-20T17:59:03.134Z,16.57
2017-12-20T18:01:30.583Z,15.10
2017-12-20T18:03:58.075Z,15.50
2017-12-20T18:06:25.526Z,16.63
2017-12-20T18:08:53.015Z,15.03
2017-12-20T18:11:21.219Z,16.70
2017-12-20T18:13:49.441Z,14.00
2017-12-20T18:16:17.714Z,15.73
2017-12-20T18:18:45.155Z,13.87
2017-12-20T18:21:13.496Z,16.03
2017-12-20T18:23:41.306Z,15.43
2017-12-20T18:26:08.812Z,15.47
2017-12-20T18:31:38.800Z,14.03
2017-12-20T18:34:06.303Z,14.47
2017-12-20T18:36:33.885Z,14.07
2017-12-20T18:39:01.430Z,18.37
2017-12-20T18:41:28.968Z,25.93
2017-12-20T18:43:56.424Z,26.90
2017-12-20T18:46:23.871Z,15.00
2017-12-20T18:48:51.362Z,14.47
2017-12-20T18:51:18.805Z,13.87
2017-12-20T18:53:46.249Z,14.53
2017-12-20T18:56:13.705Z,13.83
2017-12-20T18:58:41.169Z,11.77
2017-12-20T19:01:08.671Z,13.00
2017-12-20T19:03:36.121Z,11.70
2017-12-20T19:06:03.598Z,15.83
2017-12-20T19:08:31.051Z,14.70
2017-12-20T19:10:58.514Z,14.73
2017-12-20T19:13:25.963Z,15.27
2017-12-20T19:15:53.444Z,17.90
2017-12-20T19:18:21.712Z,16.90
2017-12-20T19:20:49.337Z,13.33
2017-12-20T19:23:16.906Z,14.47
2017-12-20T19:25:44.445Z,15.77
2017-12-20T19:28:11.941Z,14.97
2017-12-20T19:30:39.385Z,14.07
2017-12-20T19:33:06.837Z,13.80
2017-12-20T19:35:34.345Z,14.00
2017-12-20T19:38:02.586Z,15.63
2017-12-20T19:40:30.069Z,14.93
2017-12-20T19:42:58.271Z,16.37
2017-12-20T19:45:25.796Z,14.57
2017-12-20T19:47:54.039Z,14.93
2017-12-20T19:50:21.519Z,13.00
2017-12-20T19:52:49.005Z,13.40
2017-12-20T19:55:16.501Z,15.95
2017-12-20T19:57:43.993Z,14.23
2017-12-20T20:00:11.476Z,13.40
2017-12-20T20:02:39.736Z,14.47
2017-12-20T20:05:08.021Z,14.10
2017-12-20T20:07:36.275Z,16.50
2017-12-20T20:10:03.740Z,13.93
2017-12-20T20:12:32.437Z,17.50
2017-12-20T20:14:59.919Z,16.40
2017-12-20T20:17:27.400Z,16.60
2017-12-20T20:19:54.901Z,14.40
2017-12-20T20:22:23.132Z,13.60
2017-12-20T20:24:50.631Z,15.00
2017-12-20T20:27:18.140Z,14.23
2017-12-20T20:29:45.631Z,15.25
2017-12-20T20:32:13.148Z,16.13
2017-12-20T20:34:40.670Z,15.33
2017-12-20T20:37:08.927Z,13.47
2017-12-20T20:39:36.409Z,19.10
2017-12-20T20:42:04.669Z,18.17
2017-12-20T20:44:32.151Z,19.00
2017-12-20T20:46:59.654Z,18.13
2017-12-20T20:49:27.135Z,18.00
2017-12-20T20:51:54.640Z,19.67
2017-12-20T20:54:22.133Z,21.83
2017-12-20T20:56:49.632Z,22.40
2017-12-20T20:59:17.887Z,17.93
2017-12-20T21:01:45.392Z,19.10
2017-12-20T21:04:12.892Z,20.10
2017-12-20T21:06:40.393Z,20.77
2017-12-20T21:09:07.900Z,17.70
2017-12-20T21:11:35.365Z,17.40
2017-12-20T21:14:02.873Z,16.70
2017-12-20T21:16:30.358Z,16.23
2017-12-20T21:18:57.797Z,16.97
2017-12-20T21:21:25.265Z,13.27
2017-12-20T21:23:52.764Z,14.03
2017-12-20T21:26:21.036Z,14.67
2017-12-20T21:28:48.541Z,14.60
2017-12-20T21:31:16.042Z,12.67
2017-12-20T21:33:43.482Z,14.00
2017-12-20T21:36:10.941Z,15.37
2017-12-20T21:38:38.432Z,13.17
2017-12-20T21:41:06.711Z,13.63
2017-12-20T21:43:34.922Z,17.33
2017-12-20T21:46:02.422Z,15.83
2017-12-20T21:48:29.912Z,14.10
2017-12-20T21:50:58.178Z,15.87
2017-12-20T21:53:26.434Z,14.10
2017-12-20T21:55:53.943Z,16.50
2017-12-20T21:58:21.440Z,16.57
2017-12-20T22:00:48.923Z,14.70
2017-12-20T22:03:16.364Z,14.90
2017-12-20T22:05:44.626Z,15.03
2017-12-20T22:08:12.516Z,14.73
2017-12-20T22:10:40.850Z,16.23
2017-12-20T22:13:09.064Z,17.10
2017-12-20T22:15:36.491Z,16.97
2017-12-20T22:18:03.992Z,18.67
2017-12-20T22:20:32.241Z,19.23
2017-12-20T22:22:59.736Z,18.50
2017-12-20T22:25:27.989Z,16.87
2017-12-20T22:27:55.473Z,16.57
2017-12-20T22:30:22.951Z,16.93
2017-12-20T22:32:50.438Z,18.30
2017-12-20T22:35:17.934Z,17.50
2017-12-20T22:37:46.200Z,17.73
2017-12-20T22:40:14.452Z,18.90
2017-12-20T22:42:41.940Z,17.17
2017-12-20T22:45:10.182Z,17.77
2017-12-20T22:47:37.663Z,19.00
2017-12-20T22:50:05.915Z,19.40
2017-12-20T22:52:33.409Z,18.62
2017-12-20T22:55:00.858Z,18.93
2017-12-20T22:57:29.072Z,20.70
2017-12-20T22:59:56.567Z,20.07
2017-12-20T23:02:24.055Z,18.80
2017-12-20T23:04:52.291Z,22.10
2017-12-20T23:07:19.790Z,22.87
2017-12-20T23:09:47.233Z,23.98
2017-12-20T23:12:15.496Z,23.77
2017-12-20T23:14:42.962Z,23.83
2017-12-20T23:17:11.220Z,22.53
2017-12-20T23:19:38.657Z,21.83
2017-12-20T23:22:06.143Z,22.43
2017-12-20T23:24:33.619Z,22.03
2017-12-20T23:27:01.833Z,22.98
2017-12-20T23:29:30.091Z,22.20
2017-12-20T23:31:57.530Z,23.90
2017-12-20T23:34:25.011Z,21.57
2017-12-20T23:36:52.504Z,20.60
2017-12-20T23:39:19.983Z,23.27
2017-12-20T23:41:47.475Z,20.57
2017-12-20T23:44:14.952Z,22.00
2017-12-20T23:46:42.387Z,21.43
2017-12-20T23:49:09.849Z,22.00
2017-12-20T23:51:37.342Z,18.77
2017-12-20T23:54:04.793Z,18.42
2017-12-20T23:56:32.283Z,18.93
2017-12-20T23:58:59.725Z,16.27
